Terminal Aerodrome Forecast
Issued by NWS

Home | Current Version | Previous Version | Graphics & Text | Print | Product List | Glossary Off
Versions: 1 2 3 4 5 6 7 8 9 10 11 12

000
FTUS43 KMPX 242330
TAFRNH
TAF
KRNH 242330Z 2500/2524 17008KT P6SM VCSH BKN060 BKN110
     FM251400 18005KT P6SM SCT025 BKN040
     FM251800 13004KT 5SM -SHRA BR BKN025 OVC040
     FM252000 10006KT 2SM -SHRA BR OVC010=

USA.gov is the U.S. government's official web portal to all federal, state and local government web resources and services.